Time;durP1;ratioP1;P1;durP2;ratioP2;P2;SDS_P1;SDS_P2;PMS_P1;PMS_P2;Temp;Humidity;BMP_temperature;BMP_pressure;BME280_temperature;BME280_humidity;BME280_pressure;Samples;Min_cycle;Max_cycle;Signal;HPM_P1;HPM_P2
2022/09/14 04:02:08;;;;;;;0.95;0.80;;;12.50;99.90;;;;;;5207058;23;20258;-73
2022/09/14 04:04:35;;;;;;;4.47;1.23;;;12.40;99.90;;;;;;4972532;28;20236;-73
2022/09/14 04:07:02;;;;;;;0.82;0.82;;;12.40;99.90;;;;;;4967280;28;20212;-73
2022/09/14 04:09:29;;;;;;;1.10;1.02;;;12.40;99.90;;;;;;4988819;28;20248;-73
2022/09/14 04:11:55;;;;;;;1.13;1.13;;;12.40;99.90;;;;;;4992176;28;20722;-73
2022/09/14 04:14:23;;;;;;;0.93;0.93;;;12.40;99.90;;;;;;4992381;28;20679;-71
2022/09/14 04:16:50;;;;;;;1.75;1.75;;;12.40;99.90;;;;;;4992279;28;20691;-71
2022/09/14 04:19:18;;;;;;;0.57;0.57;;;12.50;99.90;;;;;;4992418;28;20501;-71
2022/09/14 04:21:45;;;;;;;0.60;0.60;;;12.50;99.90;;;;;;4991993;28;20555;-71
2022/09/14 04:24:13;;;;;;;4.95;1.02;;;12.50;99.90;;;;;;4991078;28;20661;-71
2022/09/14 04:26:40;;;;;;;1.20;1.10;;;12.50;99.90;;;;;;4991547;28;20237;-71
2022/09/14 04:29:07;;;;;;;2.90;1.27;;;12.50;99.90;;;;;;4992024;28;20553;-71
2022/09/14 04:31:35;;;;;;;1.38;1.00;;;12.60;99.90;;;;;;4992035;28;20233;-71
2022/09/14 04:34:02;;;;;;;0.75;0.70;;;12.60;99.90;;;;;;4991880;28;20201;-71
2022/09/14 04:36:30;;;;;;;0.57;0.57;;;12.60;99.90;;;;;;4991877;28;20579;-70
2022/09/14 04:38:58;;;;;;;0.70;0.70;;;12.60;99.90;;;;;;4992042;28;20287;-70
2022/09/14 04:41:26;;;;;;;3.90;0.77;;;12.50;99.90;;;;;;4991163;28;20321;-70
2022/09/14 04:43:54;;;;;;;2.70;1.00;;;12.50;99.90;;;;;;4991281;28;20233;-70
2022/09/14 04:46:24;;;;;;;2.35;1.30;;;12.50;99.90;;;;;;4991724;28;20217;-70
2022/09/14 04:48:51;;;;;;;0.80;0.80;;;12.50;99.90;;;;;;4991778;28;20218;-70
2022/09/14 04:51:19;;;;;;;0.90;0.90;;;12.60;99.90;;;;;;4965804;28;20336;-70
2022/09/14 04:53:49;;;;;;;4.35;1.25;;;12.60;99.90;;;;;;4982229;28;20217;-71
2022/09/14 04:56:17;;;;;;;0.70;0.70;;;12.60;99.90;;;;;;4972763;28;20242;-70
2022/09/14 04:58:46;;;;;;;0.80;0.80;;;12.60;99.90;;;;;;4975847;28;20785;-70
2022/09/14 05:01:14;;;;;;;2.35;1.30;;;12.60;99.90;;;;;;4980506;28;20257;-70
2022/09/14 05:03:42;;;;;;;2.55;1.00;;;12.50;99.90;;;;;;4952455;28;20231;-70
2022/09/14 05:06:10;;;;;;;1.27;0.75;;;12.50;99.90;;;;;;4952893;28;20221;-70
2022/09/14 05:08:37;;;;;;;4.63;0.75;;;12.60;99.90;;;;;;4952841;28;20671;-70
2022/09/14 05:11:07;;;;;;;0.63;0.63;;;12.50;99.90;;;;;;4952421;28;20809;-70
2022/09/14 05:13:34;;;;;;;5.50;1.05;;;12.50;99.90;;;;;;4972937;28;20229;-70
2022/09/14 05:16:14;;;;;;;0.82;0.82;;;12.50;99.90;;;;;;4978919;28;20210;-70
2022/09/14 05:18:41;;;;;;;1.30;1.13;;;12.50;99.90;;;;;;4952638;28;20208;-70
2022/09/14 05:21:10;;;;;;;1.25;1.20;;;12.60;99.90;;;;;;4952765;28;20229;-70
2022/09/14 05:23:37;;;;;;;2.00;1.90;;;12.50;99.90;;;;;;4958622;28;20721;-70
2022/09/14 05:26:06;;;;;;;0.90;0.90;;;12.60;99.90;;;;;;4982824;28;20216;-71
2022/09/14 05:28:34;;;;;;;2.60;1.00;;;12.60;99.90;;;;;;4966096;28;20310;-70
2022/09/14 05:31:04;;;;;;;1.05;0.95;;;12.60;99.90;;;;;;4971695;28;20242;-71
2022/09/14 05:33:31;;;;;;;0.95;0.95;;;12.60;99.90;;;;;;4971543;28;20216;-72
2022/09/14 05:36:01;;;;;;;3.35;1.20;;;12.60;99.90;;;;;;4973134;28;20218;-71
2022/09/14 05:38:28;;;;;;;0.90;0.90;;;12.70;99.90;;;;;;4968934;28;20237;-71
2022/09/14 05:40:55;;;;;;;0.63;0.63;;;12.70;99.90;;;;;;4976473;28;20225;-71
2022/09/14 05:43:23;;;;;;;0.85;0.85;;;12.80;99.90;;;;;;4977325;28;20582;-71
2022/09/14 05:45:51;;;;;;;0.97;0.97;;;12.90;99.90;;;;;;4988641;28;20246;-71
2022/09/14 05:48:18;;;;;;;1.23;1.23;;;12.90;99.90;;;;;;4995410;28;20468;-70
2022/09/14 05:50:45;;;;;;;1.67;0.95;;;13.00;99.90;;;;;;4984722;28;20496;-70
2022/09/14 05:53:11;;;;;;;1.03;1.00;;;13.00;99.90;;;;;;4986521;28;20217;-70
2022/09/14 05:55:38;;;;;;;2.20;1.23;;;13.10;99.90;;;;;;4994656;28;20589;-70
2022/09/14 05:58:05;;;;;;;0.97;0.97;;;13.10;99.90;;;;;;4994632;28;20480;-70
2022/09/14 06:00:33;;;;;;;0.60;0.60;;;13.20;99.90;;;;;;4994586;28;20993;-70
2022/09/14 06:03:00;;;;;;;2.83;0.93;;;13.20;99.90;;;;;;4994438;28;20564;-70
2022/09/14 06:05:27;;;;;;;1.40;0.80;;;13.30;99.90;;;;;;4994804;28;20497;-70
2022/09/14 06:07:54;;;;;;;0.90;0.90;;;13.40;99.90;;;;;;4982532;28;20552;-70
2022/09/14 06:10:22;;;;;;;1.07;1.07;;;13.40;99.90;;;;;;4991624;28;20465;-70
2022/09/14 06:12:49;;;;;;;1.80;1.10;;;13.40;99.90;;;;;;4993883;28;20465;-70
2022/09/14 06:15:16;;;;;;;3.10;1.60;;;13.40;99.90;;;;;;4994380;28;20941;-70
2022/09/14 06:17:44;;;;;;;5.43;0.90;;;13.50;99.90;;;;;;4987469;28;20470;-69
2022/09/14 06:20:11;;;;;;;0.70;0.70;;;13.50;99.90;;;;;;4974660;28;20465;-70
2022/09/14 06:22:38;;;;;;;0.80;0.80;;;13.60;99.90;;;;;;4975490;28;20511;-70
2022/09/14 06:25:05;;;;;;;1.00;1.00;;;13.60;99.90;;;;;;4985340;28;20480;-70
2022/09/14 06:27:32;;;;;;;1.00;1.00;;;13.60;99.90;;;;;;4994111;28;20469;-71
2022/09/14 06:29:58;;;;;;;1.03;1.03;;;13.70;99.90;;;;;;4993939;28;20465;-70
2022/09/14 06:32:26;;;;;;;0.97;0.73;;;13.70;99.90;;;;;;4994185;28;20520;-70
2022/09/14 06:34:54;;;;;;;1.07;1.07;;;13.70;99.90;;;;;;4993889;28;20461;-69
2022/09/14 06:37:20;;;;;;;1.53;0.70;;;13.70;99.90;;;;;;4994691;28;20472;-70
2022/09/14 06:39:47;;;;;;;1.17;0.60;;;13.80;99.90;;;;;;4985633;28;21321;-70
2022/09/14 06:42:14;;;;;;;4.20;0.87;;;13.80;99.90;;;;;;4985714;28;20484;-70
2022/09/14 06:44:41;;;;;;;1.90;1.03;;;13.90;99.90;;;;;;4993048;28;20846;-70
2022/09/14 06:47:07;;;;;;;1.33;1.33;;;13.90;99.90;;;;;;4993173;28;20469;-70
2022/09/14 06:49:34;;;;;;;2.67;0.83;;;14.00;99.90;;;;;;4993868;28;20466;-71
2022/09/14 06:52:02;;;;;;;4.73;1.10;;;14.00;99.90;;;;;;4993812;28;20498;-69
2022/09/14 06:54:29;;;;;;;6.43;1.00;;;14.00;99.90;;;;;;4993091;28;20473;-70
2022/09/14 06:56:57;;;;;;;2.37;0.97;;;14.10;99.90;;;;;;4980214;28;20481;-70
2022/09/14 06:59:23;;;;;;;1.13;0.80;;;14.10;99.90;;;;;;4975922;28;20476;-70
2022/09/14 07:01:50;;;;;;;2.10;0.80;;;14.10;99.90;;;;;;4974444;28;20494;-70
2022/09/14 07:04:17;;;;;;;1.13;1.10;;;14.20;99.90;;;;;;4973926;28;20499;-70
2022/09/14 07:06:46;;;;;;;0.90;0.90;;;14.20;99.90;;;;;;4974341;28;20466;-70
2022/09/14 07:09:15;;;;;;;0.60;0.60;;;14.30;99.90;;;;;;4974201;28;20464;-70
2022/09/14 07:11:42;;;;;;;0.50;0.50;;;14.40;99.90;;;;;;4973407;28;20494;-70
2022/09/14 07:14:09;;;;;;;1.47;1.47;;;14.50;99.90;;;;;;4972642;28;20474;-70
2022/09/14 07:16:38;;;;;;;1.07;1.07;;;14.60;99.90;;;;;;4985275;28;20459;-70
2022/09/14 07:19:07;;;;;;;2.00;0.80;;;14.80;99.90;;;;;;4993455;28;20470;-70
2022/09/14 07:21:34;;;;;;;0.93;0.90;;;14.90;99.90;;;;;;4993220;28;20485;-70
2022/09/14 07:24:01;;;;;;;1.20;0.97;;;14.90;99.90;;;;;;4993340;28;20550;-70
2022/09/14 07:26:32;;;;;;;0.63;0.63;;;14.90;99.90;;;;;;4993133;28;20811;-69
2022/09/14 07:29:01;;;;;;;2.30;0.90;;;14.90;99.90;;;;;;4980971;28;20468;-70
2022/09/14 07:31:31;;;;;;;0.60;0.60;;;14.90;99.90;;;;;;4984462;28;20486;-71
2022/09/14 07:34:00;;;;;;;1.00;1.00;;;14.90;99.90;;;;;;4993020;28;20481;-71
2022/09/14 07:36:27;;;;;;;0.83;0.80;;;15.00;99.90;;;;;;4992751;28;20478;-68
2022/09/14 07:38:55;;;;;;;0.70;0.70;;;15.00;99.90;;;;;;4993387;28;20467;-68
2022/09/14 07:41:24;;;;;;;0.80;0.80;;;15.10;99.90;;;;;;4992401;28;20534;-69
2022/09/14 07:43:55;;;;;;;4.30;1.40;;;15.20;99.90;;;;;;4992423;28;20471;-69
2022/09/14 07:46:23;;;;;;;1.73;0.83;;;15.30;99.90;;;;;;4975919;28;20467;-69
2022/09/14 07:48:55;;;;;;;1.00;1.00;;;15.30;99.90;;;;;;4973055;28;20471;-70
2022/09/14 07:51:22;;;;;;;0.87;0.87;;;15.20;99.90;;;;;;4974710;28;20482;-70
2022/09/14 07:53:49;;;;;;;0.57;0.57;;;15.30;99.90;;;;;;4973822;28;20541;-70
2022/09/14 07:56:16;;;;;;;1.20;0.43;;;15.40;99.90;;;;;;4980995;28;20461;-71
2022/09/14 07:58:43;;;;;;;0.50;0.50;;;15.40;99.90;;;;;;4971723;28;20476;-71
2022/09/14 08:01:14;;;;;;;0.70;0.70;;;15.50;99.90;;;;;;4972752;28;20528;-70
2022/09/14 08:03:42;;;;;;;0.60;0.60;;;15.50;99.90;;;;;;4972958;28;20492;-71
2022/09/14 08:06:11;;;;;;;0.73;0.73;;;15.60;99.90;;;;;;4972722;28;20554;-70
2022/09/14 08:08:40;;;;;;;1.10;1.10;;;15.50;99.90;;;;;;4968476;28;20889;-69
2022/09/14 08:11:10;;;;;;;1.13;0.60;;;15.60;99.90;;;;;;4983926;28;20493;-70
2022/09/14 08:13:38;;;;;;;0.80;0.80;;;15.60;99.90;;;;;;4991568;28;20590;-69
2022/09/14 08:16:05;;;;;;;0.40;0.40;;;15.70;99.90;;;;;;4992149;28;20456;-69
2022/09/14 08:18:35;;;;;;;0.70;0.70;;;15.70;99.90;;;;;;4973248;28;20934;-70
2022/09/14 08:21:04;;;;;;;2.23;0.70;;;15.80;99.90;;;;;;4973194;28;20493;-69
2022/09/14 08:23:31;;;;;;;1.00;0.90;;;15.90;99.90;;;;;;4972506;28;20476;-70
2022/09/14 08:26:03;;;;;;;1.03;0.80;;;15.90;99.90;;;;;;4975457;28;20497;-70
2022/09/14 08:28:29;;;;;;;0.40;0.40;;;16.00;99.90;;;;;;4989918;28;20467;-69
2022/09/14 08:30:56;;;;;;;0.93;0.70;;;16.10;99.90;;;;;;4991597;28;21004;-70
2022/09/14 08:33:23;;;;;;;0.60;0.60;;;16.20;99.90;;;;;;4991712;28;20474;-70
2022/09/14 08:35:51;;;;;;;5.10;0.50;;;16.30;99.90;;;;;;4991777;28;20465;-70
2022/09/14 08:38:18;;;;;;;1.30;0.50;;;16.30;99.90;;;;;;4991864;28;20519;-69
2022/09/14 08:40:46;;;;;;;6.03;1.23;;;16.40;99.90;;;;;;4983810;28;20823;-69
2022/09/14 08:43:14;;;;;;;0.83;0.60;;;16.40;99.90;;;;;;4983145;28;20532;-69
2022/09/14 08:45:42;;;;;;;0.30;0.30;;;16.50;99.90;;;;;;4991839;28;20487;-69
2022/09/14 08:48:17;;;;;;;0.37;0.37;;;16.60;99.90;;;;;;4991622;28;20887;-69
2022/09/14 08:50:44;;;;;;;3.03;0.50;;;16.70;99.90;;;;;;4991447;28;20578;-69
2022/09/14 08:53:12;;;;;;;2.20;0.43;;;16.80;99.90;;;;;;4991378;28;20468;-71
2022/09/14 08:55:44;;;;;;;0.97;0.77;;;16.90;99.90;;;;;;4990584;28;20470;-70
2022/09/14 08:58:26;;;;;;;0.77;0.70;;;17.00;99.90;;;;;;4971743;28;20470;-71
2022/09/14 09:00:55;;;;;;;4.10;0.70;;;17.10;99.90;;;;;;4978848;28;20832;-70
2022/09/14 09:03:47;;;;;;;0.83;0.40;;;17.30;99.90;;;;;;4991170;28;20496;-70
2022/09/14 09:06:17;;;;;;;0.60;0.60;;;17.50;99.90;;;;;;4991568;28;20513;-70
2022/09/14 09:08:56;;;;;;;4.67;0.80;;;17.70;99.90;;;;;;4991639;28;20927;-71
2022/09/14 09:11:28;;;;;;;0.40;0.40;;;17.90;99.90;;;;;;4990751;28;20494;-69
2022/09/14 09:13:56;;;;;;;0.97;0.20;;;18.00;99.90;;;;;;4974050;28;20530;-69
2022/09/14 09:16:25;;;;;;;0.20;0.20;;;18.00;99.90;;;;;;4978559;28;20467;-69
2022/09/14 09:18:58;;;;;;;0.30;0.30;;;18.00;99.90;;;;;;4991091;28;20478;-70
2022/09/14 09:21:29;;;;;;;1.40;1.30;;;18.00;99.90;;;;;;4991136;28;20487;-69
2022/09/14 09:24:03;;;;;;;1.60;0.57;;;18.00;99.90;;;;;;4990914;28;20466;-70
2022/09/14 09:26:32;;;;;;;1.60;0.30;;;18.00;99.90;;;;;;4990648;28;20495;-70
2022/09/14 09:29:01;;;;;;;0.50;0.50;;;17.90;99.90;;;;;;4978185;28;20474;-70
2022/09/14 09:31:33;;;;;;;2.37;0.73;;;17.80;99.90;;;;;;4970877;28;20503;-70
2022/09/14 09:34:01;;;;;;;1.37;0.40;;;17.90;99.90;;;;;;4985000;28;20606;-70
2022/09/14 09:36:33;;;;;;;0.70;0.30;;;17.90;99.90;;;;;;4969043;28;20507;-68
2022/09/14 09:39:01;;;;;;;2.90;0.93;;;18.00;99.90;;;;;;4982751;28;20470;-69
2022/09/14 09:41:31;;;;;;;1.90;0.20;;;18.10;99.90;;;;;;4990674;28;20518;-70
2022/09/14 09:44:00;;;;;;;1.03;0.40;;;18.20;99.90;;;;;;4979151;28;20497;-69
2022/09/14 09:46:28;;;;;;;0.53;0.50;;;18.30;99.90;;;;;;4979506;28;20853;-70
2022/09/14 09:48:56;;;;;;;1.07;0.20;;;18.30;99.90;;;;;;4990891;28;20474;-70
2022/09/14 09:51:28;;;;;;;1.17;0.60;;;18.30;99.90;;;;;;4990466;28;20489;-70
2022/09/14 09:53:58;;;;;;;0.30;0.30;;;18.20;99.90;;;;;;4990811;28;20466;-69
2022/09/14 09:56:28;;;;;;;0.30;0.30;;;18.30;99.90;;;;;;4991092;28;20466;-69
2022/09/14 09:58:55;;;;;;;0.40;0.40;;;18.50;99.90;;;;;;4990772;28;20834;-70
2022/09/14 10:01:27;;;;;;;0.50;0.50;;;18.80;99.90;;;;;;4983366;28;20508;-70
2022/09/14 10:04:04;;;;;;;1.50;0.77;;;18.90;99.90;;;;;;4978060;28;20479;-70
2022/09/14 10:06:32;;;;;;;0.93;0.53;;;19.00;99.90;;;;;;4990024;28;20498;-70
2022/09/14 10:08:59;;;;;;;0.40;0.40;;;19.10;99.90;;;;;;4991068;28;20467;-70
2022/09/14 10:11:31;;;;;;;1.33;0.30;;;19.20;99.90;;;;;;4990923;28;20488;-71
2022/09/14 10:13:58;;;;;;;0.97;0.30;;;19.40;99.90;;;;;;4990557;28;20622;-70
2022/09/14 10:16:30;;;;;;;0.40;0.40;;;19.60;99.90;;;;;;4984380;28;20469;-69
2022/09/14 10:18:58;;;;;;;1.10;1.10;;;19.70;99.90;;;;;;4978032;28;20469;-70
2022/09/14 10:21:25;;;;;;;0.43;0.43;;;19.70;99.90;;;;;;4971379;28;20485;-70
2022/09/14 10:24:04;;;;;;;1.07;0.37;;;19.70;99.90;;;;;;4974418;28;20476;-70
2022/09/14 10:26:34;;;;;;;0.20;0.20;;;19.60;99.90;;;;;;4974442;28;20493;-70
2022/09/14 10:29:28;;;;;;;0.20;0.20;;;19.50;99.90;;;;;;4974410;28;20483;-69
2022/09/14 10:32:00;;;;;;;2.37;0.37;;;19.40;99.90;;;;;;4974983;28;20495;-69
2022/09/14 10:34:27;;;;;;;0.93;0.30;;;19.40;99.90;;;;;;4974886;28;20840;-69
2022/09/14 10:37:01;;;;;;;0.80;0.60;;;19.40;99.90;;;;;;4974758;28;20478;-69
2022/09/14 10:39:36;;;;;;;0.20;0.20;;;19.50;99.90;;;;;;4974350;28;20468;-69
2022/09/14 10:42:15;;;;;;;0.93;0.70;;;19.60;99.90;;;;;;4974724;28;20510;-69
2022/09/14 10:45:13;;;;;;;0.40;0.40;;;19.60;99.90;;;;;;4974228;28;20481;-69
2022/09/14 10:48:14;;;;;;;3.60;0.80;;;19.60;99.90;;;;;;4974506;28;20496;-71
2022/09/14 10:50:52;;;;;;;1.23;0.20;;;19.90;99.90;;;;;;4979482;28;20872;-70
2022/09/14 10:53:32;;;;;;;0.30;0.20;;;20.10;99.90;;;;;;4976863;28;20464;-70
2022/09/14 10:56:02;;;;;;;0.40;0.40;;;20.10;99.90;;;;;;4971180;28;20475;-70
2022/09/14 10:58:44;;;;;;;0.60;0.30;;;20.10;99.90;;;;;;4972516;28;20586;-69
2022/09/14 11:01:26;;;;;;;0.77;0.77;;;20.20;99.90;;;;;;4974023;28;20495;-70
2022/09/14 11:04:09;;;;;;;0.30;0.30;;;20.20;99.90;;;;;;4973960;28;20476;-70
2022/09/14 11:06:45;;;;;;;0.37;0.37;;;20.20;99.90;;;;;;4979513;28;20856;-69
2022/09/14 11:09:20;;;;;;;0.90;0.60;;;20.10;99.90;;;;;;4982015;28;20461;-69
2022/09/14 11:11:56;;;;;;;1.60;0.40;;;20.10;99.90;;;;;;4954355;28;20492;-70
2022/09/14 11:14:34;;;;;;;2.83;0.40;;;20.00;99.90;;;;;;4954404;28;20464;-70
2022/09/14 11:17:17;;;;;;;2.20;0.43;;;20.10;99.90;;;;;;4954919;28;20462;-70
2022/09/14 11:19:53;;;;;;;0.73;0.40;;;20.00;99.90;;;;;;4954702;28;20469;-72
2022/09/14 11:22:27;;;;;;;0.93;0.50;;;20.10;99.90;;;;;;4955852;28;20859;-70
2022/09/14 11:24:58;;;;;;;1.23;0.57;;;20.20;99.90;;;;;;4984523;28;20927;-70
2022/09/14 11:27:29;;;;;;;0.70;0.30;;;20.30;99.90;;;;;;4993633;28;20473;-69
2022/09/14 11:30:01;;;;;;;0.20;0.20;;;20.40;99.90;;;;;;4992894;28;20468;-69
2022/09/14 11:32:33;;;;;;;0.20;0.20;;;20.60;99.90;;;;;;4993164;28;20585;-69
2022/09/14 11:35:04;;;;;;;3.00;0.40;;;20.80;99.90;;;;;;4992912;28;20472;-69
2022/09/14 11:37:37;;;;;;;0.30;0.30;;;20.80;99.90;;;;;;4993114;28;20473;-68
2022/09/14 11:40:09;;;;;;;0.50;0.37;;;20.90;99.90;;;;;;4980381;28;20981;-69
2022/09/14 11:42:40;;;;;;;1.60;0.70;;;20.90;99.90;;;;;;4983556;28;20473;-70
2022/09/14 11:45:17;;;;;;;1.70;0.47;;;20.90;99.90;;;;;;4989873;28;20684;-70
2022/09/14 11:47:49;;;;;;;0.67;0.67;;;20.70;99.90;;;;;;4965916;28;20473;-69
2022/09/14 11:50:20;;;;;;;2.43;0.70;;;20.50;99.90;;;;;;4973095;28;20504;-68
2022/09/14 11:52:52;;;;;;;0.40;0.40;;;20.50;99.90;;;;;;4973295;28;20841;-68
2022/09/14 11:55:19;;;;;;;1.30;0.37;;;20.70;99.90;;;;;;4965217;28;21007;-69
2022/09/14 11:57:47;;;;;;;0.40;0.40;;;20.80;99.90;;;;;;4979900;28;20917;-69
2022/09/14 12:00:46;;;;;;;0.40;0.40;;;20.90;99.90;;;;;;4972842;28;21005;-68
2022/09/14 12:03:17;;;;;;;0.97;0.97;;;21.00;99.90;;;;;;4972995;28;20560;-69
2022/09/14 12:05:45;;;;;;;3.60;0.30;;;21.00;99.90;;;;;;4972835;28;20486;-69
2022/09/14 12:08:41;;;;;;;1.70;0.40;;;21.00;99.90;;;;;;4972972;28;20465;-69
2022/09/14 12:11:32;;;;;;;6.10;0.80;;;20.80;99.90;;;;;;4910684;29;20571;-69
2022/09/14 12:14:26;;;;;;;0.50;0.27;;;20.70;99.90;;;;;;4968076;28;20473;-70
2022/09/14 12:17:16;;;;;;;1.40;0.50;;;20.70;99.90;;;;;;4978784;28;20475;-69
2022/09/14 12:19:45;;;;;;;1.40;0.60;;;20.40;99.90;;;;;;4965166;28;20468;-70
2022/09/14 12:22:36;;;;;;;0.40;0.40;;;20.30;99.90;;;;;;4972991;28;20500;-69
2022/09/14 12:25:15;;;;;;;0.40;0.40;;;20.30;99.90;;;;;;4944630;28;20477;-69
2022/09/14 12:27:43;;;;;;;2.00;0.53;;;20.30;99.90;;;;;;4976925;28;20468;-69
2022/09/14 12:30:54;;;;;;;0.50;0.50;;;20.30;99.90;;;;;;4990215;28;20462;-70
2022/09/14 12:33:42;;;;;;;0.50;0.40;;;20.40;99.90;;;;;;4966469;28;20472;-69
2022/09/14 12:36:11;;;;;;;0.47;0.47;;;20.40;99.90;;;;;;4972829;28;20456;-70
2022/09/14 12:39:20;;;;;;;0.90;0.37;;;20.40;99.90;;;;;;4974059;28;20478;-71
2022/09/14 12:42:05;;;;;;;0.50;0.50;;;20.40;99.90;;;;;;4977276;28;20533;-71
2022/09/14 12:44:35;;;;;;;0.30;0.30;;;20.40;99.90;;;;;;4989997;28;20471;-69
2022/09/14 12:47:50;;;;;;;0.30;0.30;;;20.30;99.90;;;;;;4991823;28;20584;-69
2022/09/14 12:50:20;;;;;;;1.07;0.97;;;20.30;99.90;;;;;;4992197;28;20464;-70
2022/09/14 12:53:04;;;;;;;0.67;0.67;;;20.30;99.90;;;;;;4991940;28;20810;-69
2022/09/14 12:55:55;;;;;;;4.77;4.30;;;20.20;99.90;;;;;;4986844;28;20483;-70
2022/09/14 12:58:40;;;;;;;0.60;0.60;;;20.10;99.90;;;;;;4988998;28;20466;-69
2022/09/14 13:01:29;;;;;;;0.30;0.30;;;19.90;99.90;;;;;;4991282;28;20494;-69
2022/09/14 13:03:57;;;;;;;0.47;0.47;;;19.90;99.90;;;;;;4980934;28;20469;-70
2022/09/14 13:06:32;;;;;;;1.07;0.57;;;19.80;99.90;;;;;;4987739;28;20593;-70
2022/09/14 13:09:00;;;;;;;2.10;0.67;;;19.70;99.90;;;;;;4977652;28;20477;-71
2022/09/14 13:11:32;;;;;;;0.50;0.50;;;19.70;99.90;;;;;;4979329;28;20852;-70
2022/09/14 13:14:00;;;;;;;2.10;0.43;;;19.70;99.90;;;;;;4990788;28;20505;-70
2022/09/14 13:16:36;;;;;;;0.30;0.30;;;19.70;99.90;;;;;;4991374;28;20552;-70
2022/09/14 13:19:06;;;;;;;0.40;0.40;;;19.70;99.90;;;;;;4991336;28;20471;-70
2022/09/14 13:21:34;;;;;;;0.73;0.43;;;19.60;99.90;;;;;;4991375;28;20494;-69
2022/09/14 13:24:01;;;;;;;0.80;0.50;;;19.50;99.90;;;;;;4990983;28;20495;-70
2022/09/14 13:26:30;;;;;;;0.30;0.30;;;19.40;99.90;;;;;;4976380;28;20506;-70
2022/09/14 13:29:01;;;;;;;0.40;0.40;;;19.40;99.90;;;;;;4985422;28;20484;-70
2022/09/14 13:31:31;;;;;;;4.77;0.80;;;19.30;99.90;;;;;;4991374;28;20827;-70
2022/09/14 13:33:59;;;;;;;1.17;0.50;;;19.30;99.90;;;;;;4991006;28;20474;-69
2022/09/14 13:36:29;;;;;;;0.30;0.30;;;19.20;99.90;;;;;;4991056;28;20465;-69
2022/09/14 13:39:00;;;;;;;0.30;0.30;;;19.30;99.90;;;;;;4991006;28;20473;-69
2022/09/14 13:41:28;;;;;;;1.07;0.40;;;19.40;99.90;;;;;;4981864;28;20729;-69
2022/09/14 13:43:56;;;;;;;0.97;0.40;;;19.40;99.90;;;;;;4980775;28;20968;-70
2022/09/14 13:46:25;;;;;;;1.70;0.30;;;19.50;99.90;;;;;;4986458;28;20484;-69
2022/09/14 13:48:52;;;;;;;1.43;0.50;;;19.50;99.90;;;;;;4990913;28;20971;-70
2022/09/14 13:51:23;;;;;;;0.57;0.57;;;19.70;99.90;;;;;;4990808;28;20494;-70
2022/09/14 13:53:52;;;;;;;3.50;0.43;;;19.70;99.90;;;;;;4991027;28;20491;-69
2022/09/14 13:56:22;;;;;;;0.63;0.37;;;19.60;99.90;;;;;;4991865;28;20570;-69
2022/09/14 13:58:51;;;;;;;0.73;0.50;;;19.60;99.90;;;;;;4976833;28;20477;-70
2022/09/14 14:01:28;;;;;;;0.40;0.40;;;19.60;99.90;;;;;;4978125;28;21059;-70
2022/09/14 14:03:57;;;;;;;0.80;0.80;;;19.60;99.90;;;;;;4974980;28;20475;-69
2022/09/14 14:06:26;;;;;;;2.20;0.43;;;19.50;99.90;;;;;;4975270;28;20574;-70
2022/09/14 14:08:56;;;;;;;1.23;0.70;;;19.50;99.90;;;;;;4975377;28;20578;-69
2022/09/14 14:11:34;;;;;;;0.97;0.60;;;19.50;99.90;;;;;;4974939;28;20491;-69
2022/09/14 14:14:18;;;;;;;0.93;0.43;;;19.40;99.90;;;;;;4972026;28;20478;-70
2022/09/14 14:17:19;;;;;;;0.73;0.60;;;19.50;99.90;;;;;;4975727;28;20462;-71
2022/09/14 14:19:46;;;;;;;0.40;0.40;;;19.50;99.90;;;;;;4974860;28;20471;-70
2022/09/14 14:22:19;;;;;;;0.50;0.47;;;19.50;99.90;;;;;;4974879;28;20494;-71
2022/09/14 14:24:47;;;;;;;5.10;0.73;;;19.50;99.90;;;;;;4973847;28;21080;-69
2022/09/14 14:27:30;;;;;;;0.50;0.50;;;19.40;99.90;;;;;;4968591;28;20846;-69
2022/09/14 14:29:58;;;;;;;0.63;0.50;;;19.40;99.90;;;;;;4977886;28;20473;-68
2022/09/14 14:32:24;;;;;;;0.30;0.30;;;19.40;99.90;;;;;;4961001;28;20496;-70
2022/09/14 14:34:52;;;;;;;0.33;0.33;;;19.30;99.90;;;;;;4969210;28;20471;-70
2022/09/14 14:37:19;;;;;;;2.00;0.80;;;19.20;99.90;;;;;;4965610;28;20491;-70
2022/09/14 14:39:47;;;;;;;1.00;0.90;;;19.20;99.90;;;;;;4993548;28;20950;-69
2022/09/14 14:42:14;;;;;;;0.80;0.80;;;19.10;99.90;;;;;;4978076;28;20903;-69
2022/09/14 14:44:43;;;;;;;0.63;0.50;;;19.10;99.90;;;;;;4960777;28;20476;-69
2022/09/14 14:47:11;;;;;;;1.80;0.93;;;19.00;99.90;;;;;;4963387;28;20479;-69
2022/09/14 14:49:38;;;;;;;0.40;0.40;;;19.00;99.90;;;;;;4973598;28;20481;-69
2022/09/14 14:52:05;;;;;;;0.53;0.53;;;19.00;99.90;;;;;;4967862;28;20544;-69
2022/09/14 14:54:32;;;;;;;1.13;0.53;;;19.00;99.90;;;;;;4960881;28;20475;-70
2022/09/14 14:57:01;;;;;;;1.23;0.60;;;19.00;99.90;;;;;;4964416;28;20485;-69
2022/09/14 14:59:29;;;;;;;0.20;0.20;;;19.10;99.90;;;;;;4963179;28;20944;-69
2022/09/14 15:01:58;;;;;;;0.63;0.50;;;19.20;99.90;;;;;;4966271;28;20672;-69
2022/09/14 15:04:25;;;;;;;1.40;0.40;;;19.20;99.90;;;;;;4966320;28;20477;-69
2022/09/14 15:06:52;;;;;;;1.17;0.60;;;19.20;99.90;;;;;;4965308;28;20513;-69
2022/09/14 15:09:22;;;;;;;0.40;0.40;;;19.30;99.90;;;;;;4963638;28;20484;-68
2022/09/14 15:11:49;;;;;;;0.33;0.33;;;19.30;99.90;;;;;;4975593;28;20541;-69
2022/09/14 15:14:18;;;;;;;0.40;0.40;;;19.20;99.90;;;;;;4956145;28;20479;-69
2022/09/14 15:16:45;;;;;;;0.60;0.60;;;19.20;99.90;;;;;;4964334;28;20462;-69
2022/09/14 15:19:14;;;;;;;0.80;0.80;;;19.20;99.90;;;;;;4975733;28;20561;-69
2022/09/14 15:21:42;;;;;;;0.50;0.50;;;19.10;99.90;;;;;;4973873;28;20487;-69
2022/09/14 15:24:08;;;;;;;3.40;0.97;;;19.10;99.90;;;;;;4971284;28;20547;-69
2022/09/14 15:26:36;;;;;;;2.40;0.63;;;19.20;99.90;;;;;;4954364;28;21003;-70
2022/09/14 15:29:04;;;;;;;0.30;0.30;;;19.30;99.90;;;;;;4954126;28;20474;-70
2022/09/14 15:31:30;;;;;;;1.90;0.50;;;19.30;99.90;;;;;;4957412;28;20488;-70
2022/09/14 15:33:58;;;;;;;0.87;0.57;;;19.30;99.90;;;;;;4968423;28;20471;-69
2022/09/14 15:36:46;;;;;;;2.60;0.90;;;19.20;99.90;;;;;;4961849;28;20955;-69
2022/09/14 15:39:14;;;;;;;4.73;0.70;;;19.20;99.90;;;;;;4977234;28;20474;-69
2022/09/14 15:41:42;;;;;;;0.50;0.30;;;19.00;99.90;;;;;;4974110;28;20494;-69
2022/09/14 15:44:10;;;;;;;1.03;0.60;;;19.00;99.90;;;;;;4964573;28;20495;-69
2022/09/14 15:46:38;;;;;;;1.20;0.40;;;19.00;99.90;;;;;;4973272;28;20490;-69
2022/09/14 15:49:07;;;;;;;0.60;0.60;;;19.00;99.90;;;;;;4971551;28;20494;-69
2022/09/14 15:51:33;;;;;;;1.23;0.60;;;18.90;99.90;;;;;;4965150;28;20492;-69
2022/09/14 15:54:02;;;;;;;0.90;0.50;;;18.90;99.90;;;;;;4970252;28;20469;-69
2022/09/14 15:56:28;;;;;;;0.30;0.30;;;18.80;99.90;;;;;;4983869;28;20809;-69
2022/09/14 15:58:58;;;;;;;0.73;0.50;;;18.80;99.90;;;;;;4992549;28;20804;-69
2022/09/14 16:01:25;;;;;;;0.60;0.60;;;18.80;99.90;;;;;;4985561;28;20609;-70
2022/09/14 16:03:56;;;;;;;0.80;0.70;;;18.70;99.90;;;;;;4966672;28;20971;-69
2022/09/14 16:06:23;;;;;;;0.50;0.50;;;18.80;99.90;;;;;;4971307;28;20956;-69
2022/09/14 16:08:50;;;;;;;0.40;0.40;;;18.70;99.90;;;;;;4972295;28;20467;-69
2022/09/14 16:11:18;;;;;;;0.80;0.80;;;18.70;99.90;;;;;;4975769;28;20496;-69
2022/09/14 16:13:44;;;;;;;0.40;0.40;;;18.70;99.90;;;;;;4983742;28;20462;-70
2022/09/14 16:16:14;;;;;;;0.57;0.57;;;18.80;99.90;;;;;;4990305;28;20876;-70
2022/09/14 16:18:41;;;;;;;1.07;0.60;;;18.70;99.90;;;;;;4972853;28;20487;-70
2022/09/14 16:21:10;;;;;;;3.03;0.77;;;18.70;99.90;;;;;;4971664;28;20490;-71
2022/09/14 16:23:39;;;;;;;1.33;0.50;;;18.60;99.90;;;;;;4969099;28;20493;-70
2022/09/14 16:26:09;;;;;;;0.40;0.40;;;18.60;99.90;;;;;;4974950;28;20462;-70
2022/09/14 16:28:37;;;;;;;5.10;0.50;;;18.50;99.90;;;;;;4991132;28;20526;-69
2022/09/14 16:31:05;;;;;;;1.20;0.70;;;18.50;99.90;;;;;;4991712;28;20573;-70
2022/09/14 16:33:36;;;;;;;0.57;0.57;;;18.50;99.90;;;;;;4991586;28;20468;-70
2022/09/14 16:36:05;;;;;;;2.40;0.70;;;18.40;99.90;;;;;;4972562;28;20475;-71
2022/09/14 16:38:32;;;;;;;0.57;0.53;;;18.40;99.90;;;;;;4980823;28;20478;-69
2022/09/14 16:41:00;;;;;;;0.90;0.90;;;18.40;99.90;;;;;;4976994;28;20482;-70
2022/09/14 16:43:26;;;;;;;5.03;3.53;;;18.30;99.90;;;;;;4970044;28;20467;-70
2022/09/14 16:46:02;;;;;;;0.60;0.60;;;18.30;99.90;;;;;;4980350;28;20467;-71
2022/09/14 16:48:30;;;;;;;0.60;0.60;;;18.30;99.90;;;;;;4971728;28;20490;-71
2022/09/14 16:50:57;;;;;;;1.27;0.70;;;18.20;99.90;;;;;;4972252;28;20859;-71
2022/09/14 16:53:24;;;;;;;3.80;0.97;;;18.20;99.90;;;;;;4971940;28;20498;-70
2022/09/14 16:55:50;;;;;;;9.83;0.80;;;18.10;99.90;;;;;;4960555;28;20466;-71
2022/09/14 16:58:17;;;;;;;3.47;0.50;;;18.10;99.90;;;;;;4958572;28;20831;-71
2022/09/14 17:00:44;;;;;;;1.53;0.80;;;18.10;99.90;;;;;;4983000;28;20500;-70
2022/09/14 17:03:12;;;;;;;6.13;0.63;;;18.00;99.90;;;;;;4990998;28;20477;-70
2022/09/14 17:05:38;;;;;;;3.13;0.43;;;18.00;99.90;;;;;;4970706;28;20840;-70
2022/09/14 17:08:05;;;;;;;0.63;0.63;;;18.00;99.90;;;;;;4971060;28;20489;-70